Thunderstorms From: 25-05-2018 05:05 Until: 26-05-2018 05:00 warning for: Thunderstorms Level: Yellow info button

Although rather usual in this region, locally or potentially dangerous phenomena are expected. (such as local winds, summer thunderstorms, rising streams or high waves) Be aware and pay attention to the latest weather updates, especially if you carry out activities exposed to weather or close to a stream or shoreline. 


Meteo18 Weather Cam more information Meteo18 Weather Cam


warning for Thunderstorms more information blitzortung!


Rain radar more information rain snow radar


Visit our other weather sites:

Template documentation
and downloads

And another site



Weather Underground History page Text

Daily Summary for July 11, 2017 Units:  Metric    English   Both
« Previous Day
Next Day »
Daily Weekly Monthly Yearly Custom
  High: Low: Average:
Temperature: -17.8 °C -9.9 °C -7.6 °C
Dew Point: -17.8 °C -11.1 °C -9.9 °C
Humidity: Humidity % 50 % 79 %
Wind Speed: 0 km/h 0 km/h 10.9 km/h
Wind Gust: 0 km/h - -
Wind:- - SW
Pressure: 0 hPa 34361.1 hPa -
Precipitation: 7.62 mm    
Historical Graphs
 
 
Tabular Data for July 11, 2017
Time Temperature Dew Point Pressure Wind Wind Speed Wind Gust Humidity Rainfall Rate (Hourly)
-17.8 °C -17.8 °C 0 hPa Calm     Humidity % 0 mm
00:02 -8.6 °C -9 °C 34405.1 hPa SW 5.1 km/h 10.3 km/h 95 % 0 mm
00:07 -8.5 °C -8.8 °C 34405.1 hPa SW 5.1 km/h 10.3 km/h 96 % 0 mm
00:12 -8.6 °C -8.9 °C 34405.1 hPa SW 5.1 km/h 10.3 km/h 96 % 0 mm
00:17 -8.5 °C -8.8 °C 34405.1 hPa SW 7.7 km/h 10.3 km/h 96 % 0 mm
00:22 -8.4 °C -8.8 °C 34405.1 hPa SW 5.1 km/h 10.3 km/h 96 % 0 mm
00:32 -8.6 °C -8.9 °C 34405.1 hPa WSW 5.1 km/h 12.9 km/h 96 % 0 mm
00:37 -8.7 °C -9 °C 34405.1 hPa SW 7.7 km/h 10.3 km/h 96 % 0 mm
00:42 -8.7 °C -9.1 °C 34405.1 hPa SSW 10.3 km/h 10.3 km/h 96 % 0 mm
00:47 -8.8 °C -9.2 °C 34405.1 hPa SSW 2.6 km/h 15.6 km/h 96 % 0 mm
00:52 -8.7 °C -9 °C 34418.7 hPa WSW 5.1 km/h 20.8 km/h 97 % 0 mm
00:57 -8.6 °C -8.9 °C 34418.7 hPa WSW 7.7 km/h 20.8 km/h 97 % 0 mm
01:02 -8.6 °C -8.8 °C 34418.7 hPa West 7.7 km/h 20.8 km/h 97 % 0 mm
01:12 -8.5 °C -8.8 °C 34418.7 hPa Calm   18.2 km/h 97 % 0 mm
01:17 -8.5 °C -8.8 °C 34418.7 hPa Calm   15.6 km/h 97 % 0 mm
01:22 -8.5 °C -8.8 °C 34418.7 hPa Calm   7.7 km/h 97 % 0 mm
01:32 -8.6 °C -8.8 °C 34418.7 hPa SE 2.6 km/h 2.6 km/h 97 % 0 mm
01:42 -8.5 °C -8.8 °C 34418.7 hPa Calm   5.1 km/h 97 % 0 mm
01:47 -8.5 °C -8.8 °C 34418.7 hPa SW 2.6 km/h 5.1 km/h 97 % 0 mm
01:52 -8.5 °C -8.8 °C 34418.7 hPa Calm   10.3 km/h 97 % 0 mm
01:57 -8.5 °C -8.8 °C 34418.7 hPa WSW 5.1 km/h 10.3 km/h 97 % 0 mm
02:02 -8.5 °C -8.8 °C 34405.1 hPa Calm   10.3 km/h 97 % 0 mm
02:07 -8.6 °C -8.8 °C 34405.1 hPa SW 7.7 km/h 7.7 km/h 97 % 0 mm
02:12 -8.6 °C -8.8 °C 34405.1 hPa SW 5.1 km/h 7.7 km/h 97 % 0 mm
02:17 -8.6 °C -8.8 °C 34405.1 hPa South 2.6 km/h 10.3 km/h 97 % 0 mm
02:22 -8.6 °C -8.9 °C 34405.1 hPa SW 2.6 km/h 10.3 km/h 97 % 0 mm
02:27 -8.6 °C -8.9 °C 34418.7 hPa SSW 5.1 km/h 10.3 km/h 97 % 0 mm
02:32 -8.7 °C -8.9 °C 34418.7 hPa WSW 7.7 km/h 10.3 km/h 97 % 0 mm
02:37 -8.7 °C -8.9 °C 34405.1 hPa WSW 2.6 km/h 10.3 km/h 97 % 0 mm
02:42 -8.7 °C -8.9 °C 34418.7 hPa Calm   12.9 km/h 97 % 0 mm
02:47 -8.7 °C -8.9 °C 34418.7 hPa WNW 2.6 km/h 12.9 km/h 97 % 0 mm
02:52 -8.7 °C -8.9 °C 34405.1 hPa Calm   12.9 km/h 97 % 0 mm
02:57 -8.7 °C -9 °C 34405.1 hPa Calm   7.7 km/h 97 % 0 mm
03:02 -8.7 °C -9 °C 34405.1 hPa Calm   7.7 km/h 97 % 0 mm
03:12 -8.7 °C -9 °C 34405.1 hPa Calm   5.1 km/h 97 % 0 mm
03:17 -8.7 °C -9 °C 34405.1 hPa Calm   5.1 km/h 97 % 0 mm
03:22 -8.7 °C -9 °C 34405.1 hPa Calm   5.1 km/h 97 % 0 mm
03:27 -8.7 °C -9 °C 34395 hPa Calm   5.1 km/h 97 % 0 mm
03:32 -8.7 °C -9 °C 34405.1 hPa Calm   2.6 km/h 97 % 0 mm
03:42 -8.8 °C -9.1 °C 34405.1 hPa SSW 5.1 km/h 12.9 km/h 97 % 7.62 mm
03:47 -8.8 °C -9.1 °C 34405.1 hPa SW 10.3 km/h 20.8 km/h 97 % 7.62 mm
03:52 -8.9 °C -9.2 °C 34405.1 hPa Calm   20.8 km/h 97 % 7.62 mm
03:57 -8.9 °C -9.2 °C 34405.1 hPa SSW 5.1 km/h 20.8 km/h 97 % 7.62 mm
04:02 -8.9 °C -9.2 °C 34405.1 hPa SW 5.1 km/h 15.6 km/h 97 % 7.62 mm
04:07 -9.1 °C -9.3 °C 34405.1 hPa Calm   12.9 km/h 97 % 7.62 mm
04:12 -9.1 °C -9.4 °C 34405.1 hPa SSW 5.1 km/h 12.9 km/h 97 % 7.62 mm
04:17 -9.2 °C -9.5 °C 34405.1 hPa SSW 5.1 km/h 10.3 km/h 97 % 7.62 mm
04:22 -9.3 °C -9.6 °C 34405.1 hPa SSW 7.7 km/h 15.6 km/h 97 % 7.62 mm
04:27 -9.3 °C -9.6 °C 34405.1 hPa SSW 5.1 km/h 15.6 km/h 97 % 7.62 mm
04:32 -9.4 °C -9.7 °C 34395 hPa SW 5.1 km/h 15.6 km/h 97 % 7.62 mm
04:37 -9.5 °C -9.8 °C 34395 hPa SW 5.1 km/h 10.3 km/h 97 % 0 mm
04:42 -9.6 °C -9.8 °C 34395 hPa SSW 7.7 km/h 7.7 km/h 97 % 0 mm
04:47 -9.6 °C -9.8 °C 34395 hPa SW 5.1 km/h 10.3 km/h 97 % 0 mm
04:52 -9.6 °C -9.9 °C 34395 hPa SSW 2.6 km/h 10.3 km/h 97 % 0 mm
04:57 -9.7 °C -9.9 °C 34395 hPa SSW 5.1 km/h 7.7 km/h 97 % 0 mm
05:02 -9.8 °C -10.1 °C 34395 hPa SSW 5.1 km/h 7.7 km/h 97 % 0 mm
05:07 -9.8 °C -10.1 °C 34395 hPa Calm   10.3 km/h 97 % 0 mm
05:12 -9.8 °C -10.1 °C 34395 hPa WSW 5.1 km/h 10.3 km/h 97 % 0 mm
05:17 -9.8 °C -10.1 °C 34395 hPa SW 2.6 km/h 7.7 km/h 97 % 0 mm
05:22 -9.8 °C -10.1 °C 34395 hPa SW 2.6 km/h 7.7 km/h 97 % 0 mm
05:32 -9.9 °C -10.2 °C 34395 hPa Calm   5.1 km/h 97 % 0 mm
05:37 -9.9 °C -10.2 °C 34405.1 hPa Calm   5.1 km/h 97 % 0 mm
05:42 -9.9 °C -10.2 °C 34405.1 hPa SSW 5.1 km/h 5.1 km/h 97 % 0 mm
05:47 -9.9 °C -10.2 °C 34418.7 hPa SW 5.1 km/h 10.3 km/h 97 % 0 mm
05:52 -9.9 °C -10.2 °C 34418.7 hPa SW 18.2 km/h 18.2 km/h 97 % 0 mm
05:57 -9.9 °C -10.2 °C 34418.7 hPa SW 2.6 km/h 20.8 km/h 96 % 0 mm
06:02 -9.8 °C -10.2 °C 34418.7 hPa Calm   20.8 km/h 96 % 0 mm
06:12 -9.8 °C -10.1 °C 34405.1 hPa West 7.7 km/h 20.8 km/h 96 % 0 mm
06:17 -9.8 °C -10.2 °C 34405.1 hPa SSW 2.6 km/h 15.6 km/h 95 % 0 mm
06:22 -9.8 °C -10.2 °C 34405.1 hPa WSW 7.7 km/h 15.6 km/h 95 % 0 mm
06:27 -9.7 °C -10.2 °C 34418.7 hPa SSW 7.7 km/h 18.2 km/h 95 % 0 mm
06:32 -9.7 °C -10.3 °C 34405.1 hPa SW 12.9 km/h 18.2 km/h 94 % 0 mm
06:42 -9.8 °C -10.3 °C 34395 hPa SSW 7.7 km/h 18.2 km/h 94 % 0 mm
06:52 -9.8 °C -10.3 °C 34395 hPa SW 10.3 km/h 15.6 km/h 95 % 0 mm
07:02 -9.8 °C -10.2 °C 34405.1 hPa West 10.3 km/h 18.2 km/h 95 % 0 mm
07:12 -9.8 °C -10.2 °C 34405.1 hPa West 12.9 km/h 20.8 km/h 95 % 0 mm
07:17 -9.7 °C -10.1 °C 34405.1 hPa West 18.2 km/h 20.8 km/h 95 % 0 mm
07:22 -9.7 °C -10.1 °C 34405.1 hPa West 7.7 km/h 20.8 km/h 95 % 0 mm
07:32 -9.6 °C -10.2 °C 34405.1 hPa WSW 12.9 km/h 20.8 km/h 94 % 0 mm
07:37 -9.6 °C -10.2 °C 34405.1 hPa WSW 10.3 km/h 20.8 km/h 94 % 0 mm
07:42 -9.6 °C -10.1 °C 34405.1 hPa WNW 12.9 km/h 20.8 km/h 94 % 0 mm
07:47 -9.6 °C -10.1 °C 34405.1 hPa West 10.3 km/h 20.8 km/h 94 % 0 mm
07:52 -9.6 °C -10.1 °C 34405.1 hPa West 5.1 km/h 20.8 km/h 94 % 0 mm
08:02 -9.5 °C -10.1 °C 34418.7 hPa SSW 7.7 km/h 20.8 km/h 94 % 0 mm
08:07 -9.4 °C -10 °C 34418.7 hPa WSW 12.9 km/h 23.3 km/h 94 % 0 mm
08:12 -9.4 °C -10 °C 34418.7 hPa SW 7.7 km/h 23.3 km/h 94 % 0 mm
08:17 -9.4 °C -10 °C 34418.7 hPa SW 10.3 km/h 20.8 km/h 94 % 0 mm
08:22 -9.4 °C -10 °C 34418.7 hPa SW 15.6 km/h 20.8 km/h 94 % 0 mm
08:27 -9.4 °C -10 °C 34418.7 hPa SW 7.7 km/h 23.3 km/h 94 % 0 mm
08:32 -9.4 °C -10 °C 34418.7 hPa WSW 7.7 km/h 23.3 km/h 94 % 0 mm
08:37 -9.4 °C -9.9 °C 34428.8 hPa SW 5.1 km/h 20.8 km/h 94 % 0 mm
08:42 -9.4 °C -9.9 °C 34428.8 hPa SW 5.1 km/h 20.8 km/h 94 % 0 mm
08:47 -9.3 °C -9.9 °C 34428.8 hPa SW 2.6 km/h 18.2 km/h 94 % 0 mm
08:52 -9.4 °C -9.9 °C 34428.8 hPa West 5.1 km/h 18.2 km/h 94 % 0 mm
08:57 -9.4 °C -9.9 °C 34428.8 hPa SW 7.7 km/h 10.3 km/h 94 % 0 mm
09:02 -9.3 °C -9.9 °C 34428.8 hPa WSW 2.6 km/h 10.3 km/h 94 % 0 mm
09:12 -9.3 °C -9.8 °C 34428.8 hPa SW 2.6 km/h 12.9 km/h 94 % 0 mm
09:17 -9.3 °C -9.9 °C 34428.8 hPa SW 5.1 km/h 20.8 km/h 94 % 0 mm
09:27 -9.3 °C -9.9 °C 34428.8 hPa SSW 2.6 km/h 20.8 km/h 93 % 0 mm
09:32 -9.3 °C -9.9 °C 34428.8 hPa SW 10.3 km/h 20.8 km/h 93 % 0 mm
09:42 -9.3 °C -9.9 °C 34428.8 hPa Calm   15.6 km/h 93 % 0 mm
09:47 -9.2 °C -9.8 °C 34428.8 hPa South 2.6 km/h 12.9 km/h 94 % 0 mm
09:52 -9.2 °C -9.7 °C 34428.8 hPa SW 10.3 km/h 12.9 km/h 94 % 0 mm
09:57 -9.2 °C -9.8 °C 34428.8 hPa WSW 7.7 km/h 18.2 km/h 93 % 0 mm
10:02 -9.2 °C -9.8 °C 34442.4 hPa WSW 10.3 km/h 18.2 km/h 93 % 0 mm
10:12 -9.1 °C -9.7 °C 34442.4 hPa SW 7.7 km/h 23.3 km/h 93 % 0 mm
10:17 -9 °C -9.7 °C 34442.4 hPa SSW 5.1 km/h 20.8 km/h 92 % 0 mm
10:22 -8.9 °C -9.7 °C 34442.4 hPa SSW 12.9 km/h 20.8 km/h 92 % 0 mm
10:32 -9 °C -9.9 °C 34442.4 hPa WSW 12.9 km/h 18.2 km/h 90 % 0 mm
10:37 -9 °C -9.9 °C 34442.4 hPa WSW 7.7 km/h 28.5 km/h 90 % 0 mm
10:42 -8.9 °C -9.8 °C 34442.4 hPa SW 12.9 km/h 28.5 km/h 90 % 0 mm
10:47 -8.9 °C -9.8 °C 34442.4 hPa SSW 5.1 km/h 31.1 km/h 90 % 0 mm
10:52 -8.8 °C -9.7 °C 34442.4 hPa WSW 10.3 km/h 31.1 km/h 90 % 0 mm
10:57 -8.8 °C -9.8 °C 34442.4 hPa SW 20.8 km/h 31.1 km/h 89 % 0 mm
11:02 -8.8 °C -9.8 °C 34442.4 hPa WSW 18.2 km/h 31.1 km/h 89 % 0 mm
11:12 -8.7 °C -9.8 °C 34452.6 hPa SW 15.6 km/h 25.9 km/h 88 % 0 mm
11:17 -8.7 °C -9.8 °C 34452.6 hPa SSW 12.9 km/h 28.5 km/h 88 % 0 mm
11:22 -8.6 °C -9.7 °C 34442.4 hPa SSW 15.6 km/h 28.5 km/h 88 % 0 mm
11:32 -8.4 °C -9.7 °C 34442.4 hPa SW 12.9 km/h 25.9 km/h 87 % 0 mm
11:37 -8.3 °C -9.5 °C 34442.4 hPa South 7.7 km/h 28.5 km/h 87 % 0 mm
11:42 -8.3 °C -9.7 °C 34442.4 hPa SW 20.8 km/h 28.5 km/h 85 % 0 mm
11:47 -8.2 °C -9.5 °C 34442.4 hPa SSW 25.9 km/h 31.1 km/h 86 % 0 mm
11:52 -8 °C -9.5 °C 34442.4 hPa WSW 15.6 km/h 31.1 km/h 84 % 0 mm
12:02 -7.7 °C -9.6 °C 34442.4 hPa SSW 12.9 km/h 41.4 km/h 80 % 0 mm
12:12 -7.6 °C -9.7 °C 34442.4 hPa SSW 20.8 km/h 36.2 km/h 79 % 0 mm
12:17 -7.6 °C -9.5 °C 34442.4 hPa SSW 20.8 km/h 36.2 km/h 80 % 0 mm
12:22 -7.5 °C -9.3 °C 34442.4 hPa WSW 12.9 km/h 36.2 km/h 81 % 0 mm
12:32 -7.4 °C -9.5 °C 34442.4 hPa West 12.9 km/h 28.5 km/h 79 % 0 mm
12:42 -7.3 °C -9.7 °C 34442.4 hPa West 18.2 km/h 31.1 km/h 76 % 0 mm
12:47 -7.1 °C -9.5 °C 34442.4 hPa West 7.7 km/h 31.1 km/h 76 % 0 mm
12:57 -7.3 °C -9.7 °C 34442.4 hPa WSW 25.9 km/h 31.1 km/h 76 % 0 mm
13:02 -7.3 °C -9.7 °C 34442.4 hPa WSW 7.7 km/h 31.1 km/h 76 % 0 mm
13:12 -7.1 °C -9.6 °C 34428.8 hPa WSW 15.6 km/h 25.9 km/h 75 % 0 mm
13:17 -7.1 °C -9.7 °C 34428.8 hPa SW 25.9 km/h 36.2 km/h 74 % 0 mm
13:22 -6.9 °C -9.6 °C 34428.8 hPa WSW 18.2 km/h 36.2 km/h 74 % 0 mm
13:32 -6.9 °C -9.6 °C 34428.8 hPa SSW 7.7 km/h 28.5 km/h 74 % 0 mm
13:42 -6.7 °C -9.5 °C 34428.8 hPa SSW 23.3 km/h 28.5 km/h 73 % 0 mm
13:47 -6.7 °C -9.4 °C 34428.8 hPa SW 18.2 km/h 28.5 km/h 74 % 0 mm
13:52 -6.6 °C -9.4 °C 34428.8 hPa SSW 15.6 km/h 33.6 km/h 73 % 0 mm
13:57 -6.6 °C -9.4 °C 34428.8 hPa SSW 7.7 km/h 33.6 km/h 73 % 0 mm
14:02 -6.6 °C -9.6 °C 34418.7 hPa SW 20.8 km/h 33.6 km/h 71 % 0 mm
14:12 -6.3 °C -9.6 °C 34418.7 hPa West 12.9 km/h 38.8 km/h 69 % 0 mm
14:17 -6.1 °C -9.8 °C 34418.7 hPa South 7.7 km/h 41.4 km/h 66 % 0 mm
14:22 -6 °C -9.6 °C 34418.7 hPa SW 28.5 km/h 41.4 km/h 67 % 0 mm
14:27 -6 °C -9.6 °C 34418.7 hPa West 12.9 km/h 41.4 km/h 67 % 0 mm
14:32 -5.9 °C -9.2 °C 34418.7 hPa West 18.2 km/h 38.8 km/h 69 % 0 mm
14:37 -6.1 °C -9.7 °C 34418.7 hPa SW 23.3 km/h 46.7 km/h 67 % 0 mm
14:42 -6.2 °C -9.4 °C 34418.7 hPa West 20.8 km/h 46.7 km/h 69 % 0 mm
14:47 -6.1 °C -9.8 °C 34418.7 hPa West 15.6 km/h 46.7 km/h 66 % 0 mm
14:52 -6.2 °C -9.8 °C 34418.7 hPa SSE 12.9 km/h 41.4 km/h 66 % 0 mm
14:57 -5.9 °C -9.6 °C 34418.7 hPa South 20.8 km/h 41.4 km/h 66 % 0 mm
15:02 -5.9 °C -9.7 °C 34418.7 hPa SW 15.6 km/h 41.4 km/h 65 % 0 mm
15:12 -5.7 °C -9.9 °C 34418.7 hPa West 25.9 km/h 44.1 km/h 62 % 0 mm
15:17 -5.7 °C -10.1 °C 34418.7 hPa West 28.5 km/h 44.1 km/h 61 % 0 mm
15:22 -5.6 °C -10.1 °C 34418.7 hPa WSW 23.3 km/h 44.1 km/h 60 % 0 mm
15:27 -5.7 °C -9.9 °C 34418.7 hPa WSW 15.6 km/h 44.1 km/h 62 % 0 mm
15:32 -5.7 °C -9.5 °C 34405.1 hPa SSW 18.2 km/h 44.1 km/h 65 % 0 mm
15:37 -5.7 °C -10.2 °C 34418.7 hPa West 18.2 km/h 41.4 km/h 60 % 0 mm
15:42 -5.7 °C -10.1 °C 34405.1 hPa SW 20.8 km/h 41.4 km/h 61 % 0 mm
15:52 -5.4 °C -9.9 °C 34405.1 hPa SSE 36.2 km/h 41.4 km/h 60 % 0 mm
15:57 -5.4 °C -10.3 °C 34405.1 hPa SW 18.2 km/h 36.2 km/h 58 % 0 mm
16:02 -5.4 °C -9.9 °C 34405.1 hPa SW 7.7 km/h 44.1 km/h 60 % 0 mm
16:07 -5.3 °C -9.7 °C 34405.1 hPa WSW 20.8 km/h 44.1 km/h 61 % 0 mm
16:12 -5.3 °C -10.2 °C 34405.1 hPa SW 25.9 km/h 36.2 km/h 58 % 0 mm
16:17 -5.3 °C -10.1 °C 34405.1 hPa West 18.2 km/h 33.6 km/h 58 % 0 mm
16:22 -5.2 °C -9.9 °C 34405.1 hPa SW 20.8 km/h 36.2 km/h 59 % 0 mm
16:32 -5.2 °C -10.3 °C 34405.1 hPa SW 20.8 km/h 41.4 km/h 56 % 0 mm
16:37 -5.2 °C -10.3 °C 34405.1 hPa WSW 12.9 km/h 41.4 km/h 56 % 0 mm
16:42 -5.4 °C -10.3 °C 34405.1 hPa WSW 15.6 km/h 38.8 km/h 57 % 0 mm
16:47 -5.4 °C -10.3 °C 34405.1 hPa West 10.3 km/h 38.8 km/h 57 % 0 mm
16:52 -5.2 °C -10.3 °C 34395 hPa SW 28.5 km/h 31.1 km/h 56 % 0 mm
16:57 -5.2 °C -10.3 °C 34395 hPa South 23.3 km/h 38.8 km/h 56 % 0 mm
17:02 -5.1 °C -9.9 °C 34395 hPa SW 20.8 km/h 38.8 km/h 58 % 0 mm
17:07 -5.1 °C -10.3 °C 34395 hPa West 23.3 km/h 41.4 km/h 55 % 0 mm
17:12 -4.9 °C -10.3 °C 34395 hPa WSW 28.5 km/h 41.4 km/h 54 % 0 mm
17:17 -5 °C -10.6 °C 34384.8 hPa SW 12.9 km/h 41.4 km/h 53 % 0 mm
17:22 -5.1 °C -10.3 °C 34395 hPa WSW 15.6 km/h 41.4 km/h 55 % 0 mm
17:32 -4.9 °C -10.1 °C 34395 hPa SSW 20.8 km/h 41.4 km/h 56 % 0 mm
17:42 -5.1 °C -10.4 °C 34384.8 hPa South 7.7 km/h 36.2 km/h 55 % 0 mm
17:52 -5 °C -10.3 °C 34384.8 hPa SSW 12.9 km/h 41.4 km/h 55 % 0 mm
18:02 -4.9 °C -10.6 °C 34384.8 hPa SW 12.9 km/h 38.8 km/h 53 % 0 mm
18:12 -5 °C -10.6 °C 34384.8 hPa SW 28.5 km/h 51.8 km/h 53 % 0 mm
18:17 -4.9 °C -10.4 °C 34384.8 hPa SW 44.1 km/h 51.8 km/h 54 % 0 mm
18:22 -5.1 °C -10.6 °C 34384.8 hPa SW 15.6 km/h 51.8 km/h 54 % 0 mm
18:32 -5.1 °C -10.8 °C 34371.3 hPa WSW 28.5 km/h 44.1 km/h 52 % 0 mm
18:42 -5.1 °C -11 °C 34371.3 hPa SW 12.9 km/h 44.1 km/h 51 % 0 mm
18:47 -5.1 °C -11 °C 34371.3 hPa SW 10.3 km/h 44.1 km/h 51 % 0 mm
18:52 -4.9 °C -11.1 °C 34371.3 hPa WSW 25.9 km/h 44.1 km/h 50 % 0 mm
18:57 -4.9 °C -10.9 °C 34371.3 hPa SW 28.5 km/h 36.2 km/h 51 % 0 mm
19:02 -4.9 °C -10.9 °C 34361.1 hPa West 5.1 km/h 36.2 km/h 51 % 0 mm
19:12 -5 °C -11.1 °C 34371.3 hPa WSW 23.3 km/h 36.2 km/h 50 % 0 mm
19:22 -5.1 °C -10.8 °C 34371.3 hPa WSW 20.8 km/h 36.2 km/h 52 % 0 mm
19:27 -4.9 °C -10.9 °C 34371.3 hPa SW 15.6 km/h 46.7 km/h 51 % 0 mm
19:32 -4.9 °C -10.7 °C 34371.3 hPa WSW 12.9 km/h 46.7 km/h 52 % 0 mm
19:42 -5 °C -10.8 °C 34371.3 hPa SW 18.2 km/h 36.2 km/h 52 % 0 mm
19:47 -5.1 °C -10.8 °C 34361.1 hPa WSW 28.5 km/h 38.8 km/h 52 % 0 mm
19:52 -5.1 °C -11.1 °C 34371.3 hPa SW 25.9 km/h 46.7 km/h 51 % 0 mm
19:57 -5.1 °C -10.9 °C 34371.3 hPa West 20.8 km/h 46.7 km/h 52 % 0 mm
20:02 -5.2 °C -11.1 °C 34371.3 hPa SW 31.1 km/h 46.7 km/h 51 % 0 mm
20:12 -5.2 °C -10.9 °C 34371.3 hPa South 10.3 km/h 38.8 km/h 52 % 0 mm
20:17 -5.2 °C -11 °C 34371.3 hPa WSW 15.6 km/h 36.2 km/h 52 % 0 mm
20:22 -5.2 °C -10.8 °C 34371.3 hPa WSW 25.9 km/h 36.2 km/h 53 % 0 mm
20:32 -5.2 °C -10.8 °C 34371.3 hPa SW 20.8 km/h 44.1 km/h 53 % 0 mm
20:37 -5.2 °C -10.7 °C 34371.3 hPa SW 20.8 km/h 44.1 km/h 54 % 0 mm
20:42 -5.2 °C -10.6 °C 34371.3 hPa SW 10.3 km/h 36.2 km/h 54 % 0 mm
20:47 -5.2 °C -10.8 °C 34371.3 hPa West 25.9 km/h 36.2 km/h 53 % 0 mm
20:52 -5.2 °C -10.7 °C 34384.8 hPa WSW 23.3 km/h 36.2 km/h 54 % 0 mm
21:02 -5.5 °C -10.8 °C 34371.3 hPa WSW 12.9 km/h 33.6 km/h 55 % 0 mm
21:12 -5.7 °C -10.6 °C 34371.3 hPa SW 5.1 km/h 20.8 km/h 57 % 0 mm
21:17 -5.7 °C -10.7 °C 34371.3 hPa WSW 7.7 km/h 18.2 km/h 57 % 0 mm
21:22 -5.8 °C -10.6 °C 34384.8 hPa SW 7.7 km/h 12.9 km/h 58 % 0 mm
21:27 -5.8 °C -10.6 °C 34384.8 hPa SW 7.7 km/h 18.2 km/h 58 % 0 mm
21:32 -5.9 °C -10.5 °C 34371.3 hPa WSW 10.3 km/h 18.2 km/h 59 % 0 mm
21:42 -6 °C -10.5 °C 34371.3 hPa SW 7.7 km/h 18.2 km/h 60 % 0 mm
21:47 -6.1 °C -10.4 °C 34371.3 hPa SW 10.3 km/h 15.6 km/h 61 % 0 mm
21:57 -6.3 °C -10.4 °C 34384.8 hPa South 7.7 km/h 15.6 km/h 63 % 0 mm
22:02 -6.5 °C -10.4 °C 34384.8 hPa SSW 5.1 km/h 12.9 km/h 64 % 0 mm
22:07 -6.6 °C -10.4 °C 34384.8 hPa SW 7.7 km/h 10.3 km/h 65 % 0 mm
22:12 -6.7 °C -10.3 °C 34384.8 hPa SSW 7.7 km/h 10.3 km/h 66 % 0 mm
22:17 -6.7 °C -10.3 °C 34384.8 hPa SSW 7.7 km/h 12.9 km/h 66 % 0 mm
22:22 -6.7 °C -10.2 °C 34384.8 hPa SSW 7.7 km/h 12.9 km/h 67 % 0 mm
22:27 -6.8 °C -10.3 °C 34384.8 hPa SW 7.7 km/h 10.3 km/h 67 % 0 mm
22:32 -6.8 °C -10.2 °C 34384.8 hPa SW 10.3 km/h 18.2 km/h 68 % 0 mm
22:37 -6.8 °C -10.1 °C 34384.8 hPa SSW 12.9 km/h 18.2 km/h 69 % 0 mm
22:42 -6.9 °C -10.1 °C 34384.8 hPa SSW 5.1 km/h 18.2 km/h 69 % 0 mm
22:47 -7 °C -10.2 °C 34384.8 hPa SSW 7.7 km/h 15.6 km/h 69 % 0 mm
22:52 -7 °C -10.1 °C 34384.8 hPa South 5.1 km/h 12.9 km/h 70 % 0 mm
22:57 -7.1 °C -10.1 °C 34384.8 hPa SSW 5.1 km/h 10.3 km/h 71 % 0 mm
23:07 -7.1 °C -10.1 °C 34395 hPa SSW 5.1 km/h 10.3 km/h 71 % 0 mm
23:12 -7.1 °C -10.1 °C 34384.8 hPa SW 7.7 km/h 10.3 km/h 71 % 0 mm
23:17 -7.1 °C -10.1 °C 34384.8 hPa SSW 5.1 km/h 10.3 km/h 71 % 0 mm
23:22 -7.1 °C -9.9 °C 34395 hPa SSW 5.1 km/h 10.3 km/h 72 % 0 mm
23:27 -7.1 °C -9.9 °C 34395 hPa SSW 7.7 km/h 12.9 km/h 72 % 0 mm
23:32 -7.1 °C -10 °C 34395 hPa SSW 5.1 km/h 12.9 km/h 72 % 0 mm
23:37 -7.1 °C -10 °C 34395 hPa WSW 5.1 km/h 12.9 km/h 72 % 0 mm
23:42 -7.1 °C -10 °C 34395 hPa SW 10.3 km/h 12.9 km/h 72 % 0 mm
23:47 -7.2 °C -9.9 °C 34395 hPa SSW 5.1 km/h 15.6 km/h 73 % 0 mm
23:52 -7.3 °C -10 °C 34395 hPa SSW 10.3 km/h 15.6 km/h 73 % 0 mm
23:57 -7.3 °C -9.9 °C 34384.8 hPa SSW 2.6 km/h 15.6 km/h 74 % 0 mm
Meteo18
Compliments of Weather Underground - 4 mb

Script developed by  Jim McMurry - jmcmurry@mwt.net Adapted for the template by  Wim van der Kuil - Leuven-Template.eu

You find our weather info also at:

European Weather Network

Weather Underground

Equipment we use:

Weather-station
Davis Vue

Weather-program
Meteobridge

Weather-server
Raspberry PI 2 B+

Provider
1 and 1

Davis Vue

Meteobridge

Raspberry PI 2 B+

1 and 1